createdAt,value
2022-08-10T00:00:18.382Z,42.50
2022-08-10T00:03:22.780Z,42.76
2022-08-10T00:06:25.442Z,42.72
2022-08-10T00:09:30.413Z,43.12
2022-08-10T00:12:54.716Z,42.82
2022-08-10T00:15:55.891Z,43.31
2022-08-10T00:18:59.899Z,43.42
2022-08-10T00:22:02.540Z,43.48
2022-08-10T00:25:06.072Z,43.84
2022-08-10T00:28:08.700Z,43.83
2022-08-10T00:31:11.317Z,44.39
2022-08-10T00:34:15.553Z,44.71
2022-08-10T00:37:18.786Z,45.04
2022-08-10T00:40:37.153Z,45.00
2022-08-10T00:43:40.759Z,44.92
2022-08-10T00:46:43.533Z,45.31
2022-08-10T00:49:47.873Z,45.87
2022-08-10T00:52:51.177Z,46.09
2022-08-10T00:57:12.439Z,46.36
2022-08-10T00:59:16.914Z,46.68
2022-08-10T01:02:19.756Z,46.29
2022-08-10T01:05:24.087Z,46.19
2022-08-10T01:08:31.610Z,46.64
2022-08-10T01:12:39.169Z,46.51
2022-08-10T01:15:07.070Z,46.66
2022-08-10T01:18:14.475Z,46.81
2022-08-10T01:21:51.030Z,47.38
2022-08-10T01:25:34.073Z,47.45
2022-08-10T01:29:09.380Z,47.53
2022-08-10T01:32:15.249Z,47.82
2022-08-10T01:35:23.547Z,48.30
2022-08-10T01:38:28.726Z,48.26
2022-08-10T01:41:40.889Z,48.51
2022-08-10T01:44:52.638Z,49.33
2022-08-10T01:48:16.957Z,48.63
2022-08-10T01:57:32.104Z,49.02
2022-08-10T02:00:37.328Z,49.38
2022-08-10T02:04:03.609Z,49.58
2022-08-10T02:07:08.509Z,49.71
2022-08-10T02:10:13.219Z,50.45
2022-08-10T02:13:18.951Z,50.39
2022-08-10T02:16:22.789Z,50.62
2022-08-10T02:19:28.955Z,50.42
2022-08-10T02:22:45.927Z,51.11
2022-08-10T02:25:49.633Z,51.02
2022-08-10T02:28:52.347Z,51.09
2022-08-10T02:31:55.297Z,50.81
2022-08-10T02:35:02.894Z,51.16
2022-08-10T02:38:07.564Z,51.26
2022-08-10T02:45:12.377Z,51.55
2022-08-10T02:45:26.114Z,51.08
2022-08-10T02:48:06.444Z,51.96
2022-08-10T02:51:17.053Z,51.21
2022-08-10T02:54:23.262Z,51.70
2022-08-10T02:57:29.011Z,51.82
2022-08-10T03:00:32.349Z,52.32
2022-08-10T03:03:45.804Z,52.57
2022-08-10T03:06:56.797Z,52.21
2022-08-10T03:09:59.996Z,52.53
2022-08-10T03:13:05.043Z,51.68
2022-08-10T03:16:08.945Z,52.62
2022-08-10T03:20:35.614Z,52.67
2022-08-10T03:22:37.860Z,52.65
2022-08-10T03:25:40.634Z,52.91
2022-08-10T03:28:44.620Z,52.75
2022-08-10T03:31:47.983Z,53.09
2022-08-10T03:34:50.482Z,52.97
2022-08-10T03:37:59.165Z,53.72
2022-08-10T03:41:04.176Z,53.58
2022-08-10T03:44:08.282Z,53.54
2022-08-10T03:47:15.977Z,53.59
2022-08-10T03:50:45.150Z,53.38
2022-08-10T03:54:03.041Z,53.46
2022-08-10T03:57:06.886Z,53.72
2022-08-10T04:00:11.015Z,54.20
2022-08-10T04:03:15.188Z,54.13
2022-08-10T04:06:18.090Z,53.79
2022-08-10T04:09:22.310Z,53.89
2022-08-10T04:12:25.014Z,53.77
2022-08-10T04:15:27.628Z,53.24
2022-08-10T04:18:30.438Z,53.72
2022-08-10T04:21:38.069Z,53.91
2022-08-10T04:24:43.095Z,53.90
2022-08-10T04:27:47.403Z,53.89
2022-08-10T04:30:51.929Z,53.73
2022-08-10T04:33:55.920Z,53.83
2022-08-10T04:37:06.714Z,53.39
2022-08-10T04:40:29.370Z,53.66
2022-08-10T04:43:33.571Z,53.36
2022-08-10T04:46:56.408Z,53.58
2022-08-10T04:49:59.245Z,53.75
2022-08-10T04:53:02.251Z,53.26
2022-08-10T04:56:08.567Z,53.65
2022-08-10T04:59:12.689Z,53.41
2022-08-10T05:02:29.156Z,52.80
2022-08-10T05:05:34.623Z,52.79
2022-08-10T05:08:37.245Z,52.87
2022-08-10T05:11:41.300Z,52.93
2022-08-10T05:14:44.195Z,52.32
2022-08-10T05:18:08.850Z,51.96
2022-08-10T05:21:09.977Z,51.32
2022-08-10T05:24:12.624Z,51.24
2022-08-10T05:27:16.602Z,51.43
2022-08-10T05:30:21.785Z,51.69
2022-08-10T05:33:24.363Z,51.02
2022-08-10T05:36:27.399Z,50.96
2022-08-10T05:39:32.186Z,51.36
2022-08-10T05:42:36.537Z,50.53
2022-08-10T05:46:18.717Z,50.73
2022-08-10T05:49:02.087Z,49.83
2022-08-10T05:52:05.258Z,50.11
2022-08-10T05:55:09.059Z,49.43
2022-08-10T05:58:13.023Z,48.99
2022-08-10T06:01:17.985Z,49.06
2022-08-10T06:04:25.044Z,48.83
2022-08-10T06:07:28.230Z,47.72
2022-08-10T06:10:33.006Z,48.08
2022-08-10T06:14:12.519Z,46.93
2022-08-10T06:17:17.246Z,45.57
2022-08-10T06:20:20.074Z,43.26
2022-08-10T06:23:23.297Z,42.55
2022-08-10T06:26:26.053Z,42.27
2022-08-10T06:29:32.217Z,41.99
2022-08-10T06:32:35.018Z,41.88
2022-08-10T06:35:37.891Z,41.90
2022-08-10T06:38:41.959Z,41.43
2022-08-10T06:42:14.124Z,41.16
2022-08-10T06:45:14.666Z,40.42
2022-08-10T06:48:20.387Z,40.24
2022-08-10T06:51:24.705Z,39.92
2022-08-10T06:54:28.873Z,39.32
2022-08-10T06:57:34.221Z,38.67
2022-08-10T07:00:39.397Z,38.28
2022-08-10T07:03:45.473Z,38.04
2022-08-10T07:06:50.639Z,37.80
2022-08-10T07:09:53.377Z,37.63
2022-08-10T07:12:58.469Z,37.54
2022-08-10T07:16:02.425Z,37.57
2022-08-10T07:19:05.557Z,37.18
2022-08-10T07:22:08.013Z,36.75
2022-08-10T07:25:31.021Z,36.44
2022-08-10T07:28:33.607Z,36.09
2022-08-10T07:31:55.401Z,35.93
2022-08-10T07:35:00.969Z,35.67
2022-08-10T07:38:04.925Z,35.50
2022-08-10T07:41:09.068Z,35.50
2022-08-10T07:44:12.504Z,35.36
2022-08-10T07:47:19.878Z,35.01
2022-08-10T07:50:44.217Z,34.60
2022-08-10T07:53:51.343Z,34.45
2022-08-10T07:56:55.265Z,34.07
2022-08-10T08:00:00.578Z,33.99
2022-08-10T08:03:07.404Z,34.04
2022-08-10T08:06:12.143Z,33.65
2022-08-10T08:09:15.292Z,33.50
2022-08-10T08:12:17.894Z,33.25
2022-08-10T08:16:20.482Z,33.41
2022-08-10T08:19:03.889Z,32.89
2022-08-10T08:24:09.605Z,33.21
2022-08-10T08:25:34.435Z,32.42
2022-08-10T08:28:37.644Z,32.21
2022-08-10T08:31:59.141Z,31.86
2022-08-10T08:35:07.794Z,31.33
2022-08-10T08:38:30.242Z,30.92
2022-08-10T08:42:00.234Z,31.01
2022-08-10T08:45:09.931Z,30.82
2022-08-10T08:48:26.757Z,30.61
2022-08-10T08:52:09.539Z,30.56
2022-08-10T08:55:52.371Z,30.04
2022-08-10T08:58:49.500Z,29.41
2022-08-10T09:02:02.518Z,29.17
2022-08-10T09:05:21.123Z,29.12
2022-08-10T09:08:31.237Z,29.19
2022-08-10T09:11:46.860Z,28.94
2022-08-10T09:14:54.286Z,27.94
2022-08-10T09:18:08.438Z,27.73
2022-08-10T09:21:17.131Z,26.86
2022-08-10T09:24:39.775Z,25.02
2022-08-10T09:27:45.652Z,25.31
2022-08-10T09:31:20.904Z,25.40
2022-08-10T09:36:24.975Z,25.04
2022-08-10T09:38:02.410Z,24.46
2022-08-10T09:41:16.671Z,24.46
2022-08-10T09:44:28.092Z,24.01
2022-08-10T09:48:02.371Z,24.16
2022-08-10T09:54:44.812Z,24.41
2022-08-10T09:57:59.825Z,23.91
2022-08-10T10:01:07.529Z,23.20
2022-08-10T10:04:38.494Z,22.61
2022-08-10T10:07:46.782Z,23.28
2022-08-10T10:10:57.675Z,23.92
2022-08-10T10:14:12.671Z,23.42
2022-08-10T10:17:18.783Z,23.20
2022-08-10T10:20:27.105Z,23.38
2022-08-10T10:23:40.032Z,22.28
2022-08-10T10:26:45.551Z,22.90
2022-08-10T10:29:57.612Z,22.88
2022-08-10T10:33:13.246Z,23.10
2022-08-10T10:36:17.437Z,23.55
2022-08-10T10:39:24.108Z,23.13
2022-08-10T10:42:47.901Z,23.11
2022-08-10T10:45:59.391Z,23.35
2022-08-10T10:49:08.910Z,23.08
2022-08-10T10:52:20.575Z,23.06
2022-08-10T10:56:13.414Z,22.70
2022-08-10T10:59:16.043Z,22.50
2022-08-10T11:02:39.920Z,22.05
2022-08-10T11:05:47.203Z,22.09
2022-08-10T11:08:52.053Z,21.95
2022-08-10T11:12:01.690Z,21.69
2022-08-10T11:15:09.131Z,21.97
2022-08-10T11:18:24.066Z,21.71
2022-08-10T11:21:39.390Z,21.79
2022-08-10T11:24:50.477Z,21.62
2022-08-10T11:27:58.157Z,21.42
2022-08-10T11:31:06.200Z,21.32
2022-08-10T11:34:48.976Z,21.64
2022-08-10T11:38:30.049Z,21.51
2022-08-10T11:42:11.981Z,21.71
2022-08-10T11:44:35.907Z,21.53
2022-08-10T11:47:42.837Z,20.94
2022-08-10T11:50:49.745Z,21.22
2022-08-10T11:54:02.036Z,21.21
2022-08-10T11:57:05.074Z,20.65
2022-08-10T12:00:08.105Z,21.12
2022-08-10T12:03:10.827Z,21.11
2022-08-10T12:06:33.693Z,20.83
2022-08-10T12:10:09.195Z,21.48
2022-08-10T12:13:09.708Z,21.27
2022-08-10T12:16:16.374Z,20.98
2022-08-10T12:19:22.905Z,20.85
2022-08-10T12:22:32.237Z,20.55
2022-08-10T12:25:57.108Z,20.40
2022-08-10T12:29:05.673Z,20.84
2022-08-10T12:32:13.726Z,20.66
2022-08-10T12:35:23.704Z,19.96
2022-08-10T12:38:36.257Z,20.12
2022-08-10T12:41:46.257Z,20.02
2022-08-10T12:44:51.658Z,19.77
2022-08-10T12:48:00.760Z,19.59
2022-08-10T12:51:06.760Z,19.02
2022-08-10T12:54:13.618Z,18.60
2022-08-10T12:57:18.470Z,13.86
2022-08-10T13:00:21.238Z,10.87
2022-08-10T13:04:21.634Z,9.03
2022-08-10T13:06:49.705Z,9.61
2022-08-10T13:09:55.657Z,8.29
2022-08-10T13:13:00.671Z,8.37
2022-08-10T13:16:04.293Z,8.57
2022-08-10T13:19:08.157Z,8.90
2022-08-10T13:22:11.213Z,8.32
2022-08-10T13:25:16.560Z,7.69
2022-08-10T13:28:35.513Z,6.36
2022-08-10T13:32:09.422Z,6.64
2022-08-10T13:35:10.028Z,6.46
2022-08-10T13:38:15.767Z,6.13
2022-08-10T13:41:20.651Z,5.95
2022-08-10T13:44:33.581Z,5.33
2022-08-10T13:47:48.086Z,5.96
2022-08-10T13:50:58.090Z,5.68
2022-08-10T13:54:01.331Z,5.51
2022-08-10T13:57:05.906Z,5.20
2022-08-10T14:00:37.729Z,4.73
2022-08-10T14:03:37.420Z,5.15
2022-08-10T14:06:41.089Z,4.79
2022-08-10T14:09:44.493Z,4.09
2022-08-10T14:12:49.715Z,4.72
2022-08-10T14:15:53.363Z,5.07
2022-08-10T14:18:59.103Z,4.32
2022-08-10T14:22:01.809Z,4.76
2022-08-10T14:25:09.185Z,4.19
2022-08-10T14:28:13.287Z,4.99
2022-08-10T14:31:22.242Z,3.80
2022-08-10T14:36:15.435Z,3.87
2022-08-10T14:37:56.177Z,4.54
2022-08-10T14:41:02.595Z,3.67
2022-08-10T14:44:09.141Z,4.57
2022-08-10T14:47:53.245Z,3.78
2022-08-10T14:50:34.903Z,3.98
2022-08-10T14:53:38.252Z,4.51
2022-08-10T14:56:41.895Z,3.76
2022-08-10T15:00:25.007Z,3.60
2022-08-10T15:03:11.279Z,3.46
2022-08-10T15:06:35.917Z,2.95
2022-08-10T15:10:01.612Z,4.10
2022-08-10T15:13:07.681Z,3.09
2022-08-10T15:16:34.128Z,3.58
2022-08-10T15:20:03.119Z,3.90
2022-08-10T15:23:06.965Z,3.16
2022-08-10T15:26:11.655Z,3.03
2022-08-10T15:29:22.711Z,3.62
2022-08-10T15:32:56.182Z,3.93
2022-08-10T15:36:16.501Z,3.99
2022-08-10T15:40:25.174Z,4.06
2022-08-10T15:42:58.307Z,4.03
2022-08-10T15:46:06.440Z,3.51
2022-08-10T15:49:25.267Z,3.53
2022-08-10T15:52:39.390Z,2.95
2022-08-10T15:55:56.449Z,3.58
2022-08-10T15:59:08.227Z,4.12
2022-08-10T16:02:17.216Z,4.42
2022-08-10T16:05:40.736Z,3.97
2022-08-10T16:08:55.967Z,3.98
2022-08-10T16:12:16.426Z,4.03
2022-08-10T16:15:22.908Z,4.47
2022-08-10T16:18:26.567Z,3.83
2022-08-10T16:21:30.773Z,4.30
2022-08-10T16:24:37.169Z,4.61
2022-08-10T16:27:40.299Z,3.94
2022-08-10T16:30:44.969Z,2.92
2022-08-10T16:33:53.176Z,4.52
2022-08-10T16:36:59.813Z,4.02
2022-08-10T16:40:03.159Z,4.19
2022-08-10T16:43:09.200Z,4.21
2022-08-10T16:46:14.623Z,4.76
2022-08-10T16:49:19.235Z,4.95
2022-08-10T16:52:26.271Z,4.99
2022-08-10T16:55:47.422Z,4.95
2022-08-10T16:58:55.782Z,5.86
2022-08-10T17:01:59.874Z,6.97
2022-08-10T17:05:04.983Z,6.19
2022-08-10T17:08:11.549Z,7.65
2022-08-10T17:11:14.423Z,10.76
2022-08-10T17:14:17.163Z,12.93
2022-08-10T17:17:22.085Z,14.99
2022-08-10T17:20:30.767Z,16.16
2022-08-10T17:23:39.015Z,17.15
2022-08-10T17:26:42.613Z,17.59
2022-08-10T17:29:57.879Z,17.98
2022-08-10T17:33:11.576Z,18.29
2022-08-10T17:36:14.963Z,18.58
2022-08-10T17:39:23.760Z,19.03
2022-08-10T17:42:26.758Z,19.63
2022-08-10T17:45:48.173Z,19.90
2022-08-10T17:48:53.071Z,20.44
2022-08-10T17:51:57.801Z,20.03
2022-08-10T17:55:04.952Z,20.56
2022-08-10T17:58:13.741Z,20.88
2022-08-10T18:01:41.842Z,21.05
2022-08-10T18:04:48.544Z,20.84
2022-08-10T18:07:52.945Z,21.21
2022-08-10T18:10:58.196Z,21.41
2022-08-10T18:14:03.204Z,21.68
2022-08-10T18:17:10.855Z,22.13
2022-08-10T18:20:14.308Z,22.07
2022-08-10T18:23:16.946Z,22.08
2022-08-10T18:26:21.294Z,22.21
2022-08-10T18:29:27.353Z,22.91
2022-08-10T18:32:34.858Z,22.81
2022-08-10T18:35:38.590Z,23.75
2022-08-10T18:38:45.906Z,23.44
2022-08-10T18:42:00.206Z,23.83
2022-08-10T18:45:12.267Z,23.86
2022-08-10T18:48:17.742Z,24.14
2022-08-10T18:51:25.063Z,24.41
2022-08-10T18:54:39.902Z,24.70
2022-08-10T18:58:02.637Z,25.04
2022-08-10T19:01:17.113Z,26.04
2022-08-10T19:04:29.618Z,26.27
2022-08-10T19:07:44.670Z,26.57
2022-08-10T19:10:52.425Z,27.10
2022-08-10T19:14:04.159Z,27.28
2022-08-10T19:17:14.025Z,27.56
2022-08-10T19:20:23.662Z,27.88
2022-08-10T19:23:39.235Z,28.25
2022-08-10T19:26:46.362Z,28.20
2022-08-10T19:30:08.411Z,28.30
2022-08-10T19:33:23.441Z,28.55
2022-08-10T19:36:30.751Z,30.45
2022-08-10T19:39:50.273Z,31.20
2022-08-10T19:42:56.593Z,29.90
2022-08-10T19:46:03.224Z,30.34
2022-08-10T19:49:14.581Z,31.37
2022-08-10T19:52:31.738Z,31.72
2022-08-10T19:55:38.756Z,30.50
2022-08-10T19:58:49.912Z,30.51
2022-08-10T20:01:56.576Z,31.34
2022-08-10T20:05:04.494Z,31.71
2022-08-10T20:08:15.363Z,31.30
2022-08-10T20:11:44.499Z,31.27
2022-08-10T20:14:50.844Z,32.68
2022-08-10T20:17:57.522Z,32.18
2022-08-10T20:21:05.099Z,32.11
2022-08-10T20:24:12.022Z,32.09
2022-08-10T20:27:59.211Z,32.77
2022-08-10T20:30:49.399Z,32.28
2022-08-10T20:34:01.010Z,32.50
2022-08-10T20:37:08.104Z,32.71
2022-08-10T20:40:15.263Z,33.10
2022-08-10T20:43:25.695Z,33.07
2022-08-10T20:46:31.662Z,33.65
2022-08-10T20:49:42.745Z,33.46
2022-08-10T20:52:46.261Z,33.68
2022-08-10T20:55:55.217Z,33.88
2022-08-10T20:59:21.747Z,33.84
2022-08-10T21:02:35.624Z,34.06
2022-08-10T21:05:55.034Z,33.72
2022-08-10T21:09:06.433Z,34.40
2022-08-10T21:12:44.169Z,33.78
2022-08-10T21:15:55.605Z,34.67
2022-08-10T21:19:15.130Z,34.85
2022-08-10T21:22:21.526Z,35.15
2022-08-10T21:25:41.675Z,35.46
2022-08-10T21:29:07.481Z,35.15
2022-08-10T21:32:20.070Z,35.82
2022-08-10T21:35:37.122Z,35.40
2022-08-10T21:38:48.770Z,35.48
2022-08-10T21:42:17.119Z,35.92
2022-08-10T21:45:59.677Z,35.77
2022-08-10T21:49:22.890Z,35.50
2022-08-10T21:52:53.661Z,35.94
2022-08-10T21:56:20.500Z,36.11
2022-08-10T21:59:46.025Z,36.44
2022-08-10T22:03:08.404Z,36.44
2022-08-10T22:06:30.729Z,36.75
2022-08-10T22:09:54.102Z,37.32
2022-08-10T22:13:19.652Z,37.57
2022-08-10T22:16:45.131Z,38.02
2022-08-10T22:20:06.984Z,38.04
2022-08-10T22:23:47.892Z,38.13
2022-08-10T22:27:47.290Z,38.32
2022-08-10T22:31:29.840Z,39.13
2022-08-10T22:35:08.045Z,39.59
2022-08-10T22:38:38.014Z,39.65
2022-08-10T22:42:07.193Z,39.11
2022-08-10T22:45:28.682Z,39.42
2022-08-10T22:48:58.524Z,39.61
2022-08-10T22:52:04.380Z,39.78
2022-08-10T22:55:29.814Z,39.33
2022-08-10T22:58:41.656Z,39.54
2022-08-10T23:02:07.972Z,39.83
2022-08-10T23:05:12.433Z,39.70
2022-08-10T23:08:29.777Z,39.72
2022-08-10T23:11:37.246Z,39.82
2022-08-10T23:14:40.876Z,39.23
2022-08-10T23:18:07.599Z,38.79
2022-08-10T23:21:15.068Z,38.83
2022-08-10T23:24:18.578Z,39.04
2022-08-10T23:27:39.274Z,39.32
2022-08-10T23:30:45.137Z,39.43
2022-08-10T23:33:55.353Z,39.92
2022-08-10T23:37:01.244Z,40.13
2022-08-10T23:40:08.345Z,39.96
2022-08-10T23:43:16.406Z,40.33
2022-08-10T23:46:24.275Z,40.94
2022-08-10T23:49:34.164Z,41.20
2022-08-10T23:52:38.869Z,41.43
2022-08-10T23:55:49.149Z,41.37
2022-08-10T23:58:55.712Z,41.53
